createdAt,value
2023-01-19T00:00:56.552Z,12
2023-01-19T00:01:56.465Z,10
2023-01-19T00:02:56.520Z,12
2023-01-19T00:03:56.463Z,13
2023-01-19T00:04:56.449Z,13
2023-01-19T00:05:56.557Z,13
2023-01-19T00:06:56.479Z,12
2023-01-19T00:07:56.497Z,12
2023-01-19T00:08:56.511Z,12
2023-01-19T00:09:56.467Z,13
2023-01-19T00:10:56.451Z,13
2023-01-19T00:11:56.461Z,13
2023-01-19T00:12:56.450Z,12
2023-01-19T00:13:56.442Z,12
2023-01-19T00:14:56.451Z,13
2023-01-19T00:15:56.487Z,12
2023-01-19T00:16:56.451Z,13
2023-01-19T00:17:57.327Z,13
2023-01-19T00:18:56.469Z,12
2023-01-19T00:19:56.454Z,12
2023-01-19T00:20:56.458Z,13
2023-01-19T00:21:56.489Z,13
2023-01-19T00:22:56.478Z,14
2023-01-19T00:23:56.453Z,14
2023-01-19T00:24:56.505Z,13
2023-01-19T00:25:56.455Z,13
2023-01-19T00:26:56.461Z,14
2023-01-19T00:27:57.166Z,14
2023-01-19T00:28:56.462Z,14
2023-01-19T00:29:56.448Z,13
2023-01-19T00:30:56.455Z,14
2023-01-19T00:31:56.453Z,14
2023-01-19T00:32:56.476Z,12
2023-01-19T00:33:56.473Z,13
2023-01-19T00:34:56.455Z,14
2023-01-19T00:35:56.479Z,14
2023-01-19T00:36:56.450Z,14
2023-01-19T00:37:56.459Z,13
2023-01-19T00:38:56.446Z,13
2023-01-19T00:39:56.460Z,14
2023-01-19T00:40:56.453Z,15
2023-01-19T00:41:56.448Z,15
2023-01-19T00:42:56.449Z,14
2023-01-19T00:43:56.461Z,14
2023-01-19T00:44:56.460Z,14
2023-01-19T00:45:56.528Z,13
2023-01-19T00:46:56.459Z,13
2023-01-19T00:47:56.474Z,13
2023-01-19T00:48:56.450Z,13
2023-01-19T00:49:56.483Z,12
2023-01-19T00:50:56.453Z,14
2023-01-19T00:51:56.524Z,13
2023-01-19T00:52:56.513Z,12
2023-01-19T00:53:56.452Z,14
2023-01-19T00:54:56.446Z,13
2023-01-19T00:55:56.452Z,13
2023-01-19T00:56:56.445Z,13
2023-01-19T00:57:56.454Z,14
2023-01-19T00:58:56.455Z,13
2023-01-19T01:00:56.539Z,12
2023-01-19T01:01:56.667Z,12
2023-01-19T01:02:56.523Z,14
2023-01-19T01:03:56.451Z,13
2023-01-19T01:04:56.448Z,13
2023-01-19T01:05:56.443Z,15
2023-01-19T01:06:56.451Z,14
2023-01-19T01:07:56.487Z,14
2023-01-19T01:08:56.508Z,13
2023-01-19T01:09:56.447Z,13
2023-01-19T01:10:56.453Z,11
2023-01-19T01:11:56.454Z,13
2023-01-19T01:13:22.226Z,13
2023-01-19T01:13:56.461Z,14
2023-01-19T01:14:56.451Z,13
2023-01-19T01:15:56.454Z,13
2023-01-19T01:16:56.452Z,13
2023-01-19T01:17:56.457Z,13
2023-01-19T01:18:56.446Z,12
2023-01-19T01:19:56.449Z,13
2023-01-19T01:20:56.466Z,13
2023-01-19T01:21:56.446Z,12
2023-01-19T01:22:56.492Z,12
2023-01-19T01:23:56.507Z,14
2023-01-19T01:24:56.452Z,14
2023-01-19T01:25:56.445Z,13
2023-01-19T01:26:56.444Z,14
2023-01-19T01:27:56.471Z,13
2023-01-19T01:28:56.444Z,12
2023-01-19T01:29:56.473Z,13
2023-01-19T01:30:56.447Z,11
2023-01-19T01:31:56.510Z,13
2023-01-19T01:32:56.495Z,12
2023-01-19T01:33:56.458Z,12
2023-01-19T01:34:56.450Z,12
2023-01-19T01:35:56.467Z,13
2023-01-19T01:36:56.458Z,13
2023-01-19T01:37:56.442Z,13
2023-01-19T01:38:56.442Z,12
2023-01-19T01:39:56.450Z,13
2023-01-19T01:40:56.450Z,13
2023-01-19T01:41:56.441Z,13
2023-01-19T01:42:56.444Z,14
2023-01-19T01:43:56.440Z,13
2023-01-19T01:44:56.542Z,13
2023-01-19T01:45:56.494Z,14
2023-01-19T01:46:56.480Z,13
2023-01-19T01:47:56.484Z,12
2023-01-19T01:48:56.454Z,13
2023-01-19T01:49:56.442Z,14
2023-01-19T01:50:56.442Z,13
2023-01-19T01:51:56.458Z,13
2023-01-19T01:53:07.076Z,13
2023-01-19T01:53:56.463Z,14
2023-01-19T01:54:56.473Z,13
2023-01-19T01:55:56.440Z,12
2023-01-19T01:56:56.463Z,13
2023-01-19T01:57:56.447Z,13
2023-01-19T01:58:56.443Z,14
2023-01-19T02:00:56.609Z,13
2023-01-19T02:01:56.626Z,11
2023-01-19T02:02:56.491Z,12
2023-01-19T02:03:56.449Z,13
2023-01-19T02:04:56.455Z,13
2023-01-19T02:05:56.451Z,13
2023-01-19T02:06:56.447Z,12
2023-01-19T02:07:56.443Z,11
2023-01-19T02:08:56.452Z,12
2023-01-19T02:09:56.464Z,13
2023-01-19T02:10:56.445Z,13
2023-01-19T02:11:56.445Z,14
2023-01-19T02:12:56.448Z,13
2023-01-19T02:13:56.436Z,13
2023-01-19T02:14:56.439Z,12
2023-01-19T02:15:56.442Z,14
2023-01-19T02:16:56.567Z,12
2023-01-19T02:17:56.453Z,13
2023-01-19T02:18:56.457Z,14
2023-01-19T02:19:56.446Z,14
2023-01-19T02:20:56.444Z,13
2023-01-19T02:21:56.443Z,12
2023-01-19T02:22:56.461Z,13
2023-01-19T02:23:56.513Z,14
2023-01-19T02:24:56.444Z,14
2023-01-19T02:25:56.471Z,14
2023-01-19T02:26:56.439Z,12
2023-01-19T02:27:56.446Z,13
2023-01-19T02:28:56.443Z,14
2023-01-19T02:29:56.450Z,12
2023-01-19T02:30:56.499Z,12
2023-01-19T02:31:56.441Z,14
2023-01-19T02:32:56.450Z,13
2023-01-19T02:33:56.449Z,13
2023-01-19T02:34:56.455Z,14
2023-01-19T02:35:56.464Z,14
2023-01-19T02:36:56.442Z,12
2023-01-19T02:37:56.440Z,14
2023-01-19T02:38:56.453Z,13
2023-01-19T02:39:56.445Z,13
2023-01-19T02:40:56.487Z,12
2023-01-19T02:41:56.443Z,13
2023-01-19T02:42:56.445Z,13
2023-01-19T02:43:56.442Z,13
2023-01-19T02:44:56.440Z,13
2023-01-19T02:45:56.501Z,12
2023-01-19T02:46:56.439Z,12
2023-01-19T02:47:56.451Z,13
2023-01-19T02:48:56.441Z,11
2023-01-19T02:49:56.449Z,13
2023-01-19T02:50:56.447Z,13
2023-01-19T02:51:56.435Z,12
2023-01-19T02:52:56.448Z,13
2023-01-19T02:53:56.439Z,10
2023-01-19T02:54:56.442Z,12
2023-01-19T02:55:56.438Z,12
2023-01-19T02:56:56.523Z,13
2023-01-19T02:57:56.446Z,12
2023-01-19T02:58:56.437Z,12
2023-01-19T02:59:56.451Z,13
2023-01-19T03:00:56.469Z,12
2023-01-19T03:01:56.449Z,12
2023-01-19T03:02:56.503Z,12
2023-01-19T03:03:56.451Z,13
2023-01-19T03:04:56.481Z,13
2023-01-19T03:05:56.446Z,11
2023-01-19T03:06:56.446Z,13
2023-01-19T03:07:56.442Z,12
2023-01-19T03:08:56.435Z,13
2023-01-19T03:09:56.444Z,12
2023-01-19T03:10:56.435Z,13
2023-01-19T03:11:56.448Z,14
2023-01-19T03:12:56.452Z,13
2023-01-19T03:13:56.438Z,12
2023-01-19T03:14:56.444Z,12
2023-01-19T03:15:56.518Z,13
2023-01-19T03:16:56.549Z,12
2023-01-19T03:17:56.447Z,12
2023-01-19T03:19:56.459Z,12
2023-01-19T03:20:56.443Z,13
2023-01-19T03:21:56.461Z,13
2023-01-19T03:22:56.450Z,13
2023-01-19T03:23:56.441Z,13
2023-01-19T03:24:56.496Z,12
2023-01-19T03:25:56.444Z,11
2023-01-19T03:26:56.440Z,10
2023-01-19T03:27:56.470Z,12
2023-01-19T03:28:56.434Z,11
2023-01-19T03:29:56.454Z,13
2023-01-19T03:30:56.514Z,12
2023-01-19T03:31:56.456Z,12
2023-01-19T03:32:56.435Z,12
2023-01-19T03:33:56.441Z,12
2023-01-19T03:34:56.439Z,12
2023-01-19T03:35:56.438Z,12
2023-01-19T03:36:56.442Z,12
2023-01-19T03:37:56.446Z,12
2023-01-19T03:38:56.451Z,12
2023-01-19T03:39:56.453Z,12
2023-01-19T03:40:56.441Z,12
2023-01-19T03:41:56.437Z,12
2023-01-19T03:42:56.440Z,12
2023-01-19T03:43:56.442Z,12
2023-01-19T03:44:56.444Z,12
2023-01-19T03:45:56.491Z,12
2023-01-19T03:46:56.442Z,12
2023-01-19T03:47:56.435Z,12
2023-01-19T03:48:56.435Z,12
2023-01-19T03:49:56.443Z,12
2023-01-19T03:50:56.443Z,12
2023-01-19T03:51:56.441Z,11
2023-01-19T03:52:56.435Z,12
2023-01-19T03:53:56.438Z,12
2023-01-19T03:54:56.446Z,12
2023-01-19T03:55:56.444Z,13
2023-01-19T03:56:56.464Z,11
2023-01-19T03:57:56.447Z,12
2023-01-19T03:58:57.097Z,13
2023-01-19T03:59:56.440Z,13
2023-01-19T04:00:56.472Z,13
2023-01-19T04:01:56.488Z,13
2023-01-19T04:02:56.520Z,12
2023-01-19T04:03:56.456Z,13
2023-01-19T04:04:56.451Z,14
2023-01-19T04:05:56.439Z,14
2023-01-19T04:06:56.492Z,12
2023-01-19T04:07:56.443Z,13
2023-01-19T04:08:56.436Z,14
2023-01-19T04:09:56.442Z,14
2023-01-19T04:10:56.443Z,15
2023-01-19T04:11:56.465Z,14
2023-01-19T04:12:56.437Z,15
2023-01-19T04:13:56.452Z,15
2023-01-19T04:14:56.443Z,14
2023-01-19T04:15:56.511Z,15
2023-01-19T04:16:56.444Z,15
2023-01-19T04:17:56.440Z,16
2023-01-19T04:18:56.443Z,16
2023-01-19T04:19:56.437Z,16
2023-01-19T04:20:56.440Z,16
2023-01-19T04:21:56.446Z,16
2023-01-19T04:22:56.444Z,14
2023-01-19T04:23:56.447Z,17
2023-01-19T04:24:56.440Z,15
2023-01-19T04:25:56.441Z,16
2023-01-19T04:26:56.436Z,16
2023-01-19T04:27:56.433Z,16
2023-01-19T04:28:56.459Z,17
2023-01-19T04:29:56.467Z,16
2023-01-19T04:30:56.523Z,17
2023-01-19T04:31:56.437Z,16
2023-01-19T04:32:56.485Z,17
2023-01-19T04:33:56.456Z,17
2023-01-19T04:34:56.451Z,17
2023-01-19T04:35:56.443Z,17
2023-01-19T04:36:56.436Z,17
2023-01-19T04:37:56.450Z,17
2023-01-19T04:38:56.440Z,19
2023-01-19T04:39:56.451Z,18
2023-01-19T04:40:56.445Z,17
2023-01-19T04:41:56.443Z,17
2023-01-19T04:42:56.434Z,17
2023-01-19T04:43:56.434Z,18
2023-01-19T04:44:56.438Z,17
2023-01-19T04:45:56.482Z,15
2023-01-19T04:46:56.435Z,16
2023-01-19T04:47:56.440Z,18
2023-01-19T04:48:56.659Z,17
2023-01-19T04:49:56.441Z,18
2023-01-19T04:50:56.431Z,18
2023-01-19T04:51:56.444Z,17
2023-01-19T04:52:56.435Z,18
2023-01-19T04:53:56.500Z,18
2023-01-19T04:54:56.435Z,18
2023-01-19T04:55:56.434Z,18
2023-01-19T04:56:56.436Z,18
2023-01-19T04:57:56.463Z,19
2023-01-19T04:58:56.448Z,19
2023-01-19T04:59:56.451Z,17
2023-01-19T05:00:56.539Z,18
2023-01-19T05:01:56.502Z,18
2023-01-19T05:02:56.487Z,18
2023-01-19T05:03:56.434Z,20
2023-01-19T05:04:56.445Z,20
2023-01-19T05:05:56.435Z,19
2023-01-19T05:06:56.429Z,20
2023-01-19T05:07:56.440Z,19
2023-01-19T05:08:56.452Z,19
2023-01-19T05:09:56.436Z,19
2023-01-19T05:10:56.440Z,18
2023-01-19T05:11:56.436Z,18
2023-01-19T05:12:56.434Z,16
2023-01-19T05:13:56.437Z,17
2023-01-19T05:14:56.469Z,17
2023-01-19T05:15:56.469Z,18
2023-01-19T05:16:56.437Z,18
2023-01-19T05:17:56.487Z,18
2023-01-19T05:18:56.439Z,18
2023-01-19T05:19:56.433Z,18
2023-01-19T05:20:56.838Z,18
2023-01-19T05:21:56.434Z,18
2023-01-19T05:22:56.444Z,18
2023-01-19T05:23:56.463Z,18
2023-01-19T05:24:56.436Z,19
2023-01-19T05:25:56.432Z,18
2023-01-19T05:26:56.431Z,18
2023-01-19T05:27:56.435Z,18
2023-01-19T05:28:56.435Z,19
2023-01-19T05:29:56.435Z,18
2023-01-19T05:30:56.529Z,17
2023-01-19T05:31:56.500Z,18
2023-01-19T05:32:56.430Z,17
2023-01-19T05:33:56.438Z,16
2023-01-19T05:34:56.434Z,16
2023-01-19T05:35:56.436Z,17
2023-01-19T05:36:56.453Z,18
2023-01-19T05:37:56.437Z,17
2023-01-19T05:38:56.437Z,16
2023-01-19T05:39:56.444Z,16
2023-01-19T05:40:56.429Z,17
2023-01-19T05:41:56.437Z,17
2023-01-19T05:42:56.430Z,18
2023-01-19T05:43:56.440Z,16
2023-01-19T05:44:56.433Z,16
2023-01-19T05:45:56.434Z,16
2023-01-19T05:46:56.524Z,17
2023-01-19T05:47:56.437Z,16
2023-01-19T05:48:56.449Z,17
2023-01-19T05:49:56.489Z,17
2023-01-19T05:50:56.441Z,18
2023-01-19T05:51:56.500Z,16
2023-01-19T05:52:56.435Z,17
2023-01-19T05:53:56.437Z,17
2023-01-19T05:54:56.430Z,17
2023-01-19T05:55:56.442Z,17
2023-01-19T05:56:56.452Z,17
2023-01-19T05:57:56.443Z,17
2023-01-19T05:58:56.493Z,17
2023-01-19T05:59:56.436Z,17
2023-01-19T06:00:56.474Z,16
2023-01-19T06:01:56.519Z,16
2023-01-19T06:02:56.529Z,15
2023-01-19T06:04:56.429Z,16
2023-01-19T06:05:56.425Z,17
2023-01-19T06:06:56.435Z,16
2023-01-19T06:07:56.445Z,16
2023-01-19T06:08:56.446Z,16
2023-01-19T06:09:56.433Z,15
2023-01-19T06:10:56.453Z,15
2023-01-19T06:11:56.435Z,15
2023-01-19T06:12:56.434Z,16
2023-01-19T06:13:56.438Z,14
2023-01-19T06:14:56.436Z,14
2023-01-19T06:15:56.430Z,15
2023-01-19T06:16:56.439Z,15
2023-01-19T06:17:56.427Z,14
2023-01-19T06:18:56.436Z,15
2023-01-19T06:19:56.431Z,14
2023-01-19T06:21:56.429Z,14
2023-01-19T06:22:56.434Z,14
2023-01-19T06:23:56.432Z,13
2023-01-19T06:24:56.444Z,13
2023-01-19T06:25:56.437Z,13
2023-01-19T06:26:56.455Z,13
2023-01-19T06:27:56.437Z,12
2023-01-19T06:28:56.435Z,12
2023-01-19T06:29:56.451Z,14
2023-01-19T06:30:56.552Z,14
2023-01-19T06:31:56.516Z,13
2023-01-19T06:32:56.436Z,14
2023-01-19T06:33:56.471Z,13
2023-01-19T06:34:56.427Z,13
2023-01-19T06:35:56.500Z,13
2023-01-19T06:36:56.429Z,13
2023-01-19T06:37:56.435Z,14
2023-01-19T06:38:56.440Z,13
2023-01-19T06:39:56.427Z,13
2023-01-19T06:40:56.424Z,13
2023-01-19T06:41:56.428Z,12
2023-01-19T06:42:56.492Z,12
2023-01-19T06:43:56.426Z,13
2023-01-19T06:44:56.430Z,13
2023-01-19T06:45:56.522Z,13
2023-01-19T06:47:16.017Z,14
2023-01-19T06:47:56.426Z,13
2023-01-19T06:48:56.434Z,14
2023-01-19T06:49:56.426Z,13
2023-01-19T06:50:58.614Z,14
2023-01-19T06:51:56.432Z,13
2023-01-19T06:52:56.431Z,13
2023-01-19T06:53:56.424Z,13
2023-01-19T06:54:56.631Z,13
2023-01-19T06:55:56.436Z,14
2023-01-19T06:56:56.447Z,14
2023-01-19T06:57:56.432Z,14
2023-01-19T06:58:56.426Z,14
2023-01-19T06:59:56.429Z,13
2023-01-19T07:00:56.549Z,14
2023-01-19T07:01:56.695Z,15
2023-01-19T07:02:56.473Z,14
2023-01-19T07:03:56.434Z,14
2023-01-19T07:04:56.518Z,15
2023-01-19T07:05:56.431Z,14
2023-01-19T07:06:56.424Z,15
2023-01-19T07:07:56.434Z,15
2023-01-19T07:08:56.422Z,14
2023-01-19T07:09:56.437Z,15
2023-01-19T07:11:26.446Z,14
2023-01-19T07:11:56.428Z,13
2023-01-19T07:12:56.426Z,14
2023-01-19T07:13:56.428Z,14
2023-01-19T07:14:56.428Z,14
2023-01-19T07:15:56.424Z,14
2023-01-19T07:16:56.506Z,14
2023-01-19T07:17:56.434Z,14
2023-01-19T07:18:56.437Z,14
2023-01-19T07:19:56.431Z,14
2023-01-19T07:22:56.435Z,14
2023-01-19T07:23:56.435Z,14
2023-01-19T07:24:56.431Z,13
2023-01-19T07:25:56.423Z,14
2023-01-19T07:26:56.436Z,14
2023-01-19T07:27:56.423Z,14
2023-01-19T07:28:56.492Z,14
2023-01-19T07:29:56.438Z,13
2023-01-19T07:30:56.653Z,13
2023-01-19T07:31:56.495Z,13
2023-01-19T07:32:56.428Z,13
2023-01-19T07:33:56.425Z,13
2023-01-19T07:34:56.434Z,14
2023-01-19T07:35:56.461Z,13
2023-01-19T07:36:56.457Z,15
2023-01-19T07:37:56.431Z,13
2023-01-19T07:38:56.425Z,14
2023-01-19T07:39:56.425Z,13
2023-01-19T07:40:56.428Z,14
2023-01-19T07:41:56.432Z,14
2023-01-19T07:42:56.430Z,15
2023-01-19T07:43:56.423Z,14
2023-01-19T07:44:56.431Z,14
2023-01-19T07:45:56.446Z,14
2023-01-19T07:46:56.431Z,15
2023-01-19T07:47:56.442Z,14
2023-01-19T07:48:56.438Z,15
2023-01-19T07:49:56.570Z,14
2023-01-19T07:50:56.436Z,16
2023-01-19T07:51:56.505Z,16
2023-01-19T07:52:56.426Z,15
2023-01-19T07:53:56.457Z,15
2023-01-19T07:54:56.430Z,14
2023-01-19T07:55:56.435Z,15
2023-01-19T07:56:56.436Z,15
2023-01-19T07:57:56.429Z,14
2023-01-19T07:58:56.480Z,15
2023-01-19T07:59:56.435Z,15
2023-01-19T08:00:56.562Z,15
2023-01-19T08:01:58.119Z,14
2023-01-19T08:02:56.425Z,14
2023-01-19T08:03:56.426Z,15
2023-01-19T08:04:56.517Z,14
2023-01-19T08:05:56.428Z,14
2023-01-19T08:06:56.508Z,14
2023-01-19T08:07:56.425Z,14
2023-01-19T08:08:56.424Z,14
2023-01-19T08:09:56.431Z,15
2023-01-19T08:10:56.426Z,14
2023-01-19T08:11:56.429Z,14
2023-01-19T08:12:56.426Z,14
2023-01-19T08:13:56.443Z,14
2023-01-19T08:14:56.423Z,13
2023-01-19T08:15:56.497Z,13
2023-01-19T08:16:56.430Z,13
2023-01-19T08:17:56.456Z,13
2023-01-19T08:18:56.436Z,12
2023-01-19T08:19:56.454Z,13
2023-01-19T08:20:56.468Z,12
2023-01-19T08:21:56.420Z,12
2023-01-19T08:22:56.420Z,13
2023-01-19T08:23:56.489Z,13
2023-01-19T08:24:56.427Z,12
2023-01-19T08:25:56.420Z,13
2023-01-19T08:26:56.436Z,13
2023-01-19T08:27:56.442Z,13
2023-01-19T08:28:56.418Z,13
2023-01-19T08:29:56.428Z,13
2023-01-19T08:30:56.541Z,13
2023-01-19T08:31:56.561Z,14
2023-01-19T08:32:56.670Z,13
2023-01-19T08:33:56.426Z,14
2023-01-19T08:34:56.421Z,14
2023-01-19T08:35:56.459Z,14
2023-01-19T08:36:56.427Z,15
2023-01-19T08:37:56.465Z,15
2023-01-19T08:38:56.422Z,15
2023-01-19T08:39:56.442Z,15
2023-01-19T08:40:56.426Z,16
2023-01-19T08:41:56.461Z,15
2023-01-19T08:42:56.440Z,14
2023-01-19T08:43:56.444Z,16
2023-01-19T08:44:58.513Z,16
2023-01-19T08:45:56.607Z,16
2023-01-19T08:46:56.427Z,16
2023-01-19T08:47:56.423Z,16
2023-01-19T08:48:56.427Z,16
2023-01-19T08:49:56.431Z,17
2023-01-19T08:50:56.420Z,17
2023-01-19T08:51:56.419Z,17
2023-01-19T08:52:56.489Z,18
2023-01-19T08:53:56.425Z,18
2023-01-19T08:54:56.520Z,18
2023-01-19T08:55:56.427Z,18
2023-01-19T08:56:56.426Z,19
2023-01-19T08:57:56.421Z,19
2023-01-19T08:59:08.622Z,21
2023-01-19T08:59:56.426Z,19
2023-01-19T09:00:56.517Z,18
2023-01-19T09:01:56.636Z,18
2023-01-19T09:02:56.517Z,19
2023-01-19T09:03:56.428Z,18
2023-01-19T09:04:56.425Z,19
2023-01-19T09:05:56.425Z,21
2023-01-19T09:06:56.423Z,20
2023-01-19T09:07:56.426Z,21
2023-01-19T09:08:56.548Z,21
2023-01-19T09:09:56.431Z,20
2023-01-19T09:10:56.422Z,23
2023-01-19T09:11:56.421Z,23
2023-01-19T09:12:56.423Z,22
2023-01-19T09:13:56.426Z,21
2023-01-19T09:14:56.414Z,19
2023-01-19T09:15:56.466Z,21
2023-01-19T09:16:56.428Z,21
2023-01-19T09:17:56.426Z,21
2023-01-19T09:18:56.429Z,21
2023-01-19T09:19:56.432Z,22
2023-01-19T09:20:56.429Z,22
2023-01-19T09:21:56.429Z,21
2023-01-19T09:22:56.417Z,21
2023-01-19T09:23:56.423Z,21
2023-01-19T09:24:56.426Z,22
2023-01-19T09:25:56.429Z,22
2023-01-19T09:26:56.440Z,22
2023-01-19T09:27:56.565Z,22
2023-01-19T09:28:56.457Z,22
2023-01-19T09:29:56.461Z,24
2023-01-19T09:30:56.661Z,23
2023-01-19T09:31:56.454Z,22
2023-01-19T09:32:58.617Z,23
2023-01-19T09:33:56.428Z,21
2023-01-19T09:34:56.421Z,21
2023-01-19T09:35:56.415Z,21
2023-01-19T09:36:56.430Z,21
2023-01-19T09:37:56.426Z,21
2023-01-19T09:38:56.417Z,20
2023-01-19T09:39:56.582Z,20
2023-01-19T09:40:56.434Z,21
2023-01-19T09:41:56.433Z,20
2023-01-19T09:42:56.424Z,19
2023-01-19T09:43:56.493Z,19
2023-01-19T09:44:56.425Z,19
2023-01-19T09:45:56.451Z,19
2023-01-19T09:46:56.426Z,19
2023-01-19T09:47:56.428Z,20
2023-01-19T09:48:56.489Z,20
2023-01-19T09:50:56.419Z,20
2023-01-19T09:51:56.452Z,21
2023-01-19T09:52:56.435Z,22
2023-01-19T09:53:56.518Z,21
2023-01-19T09:54:56.430Z,21
2023-01-19T09:55:56.424Z,20
2023-01-19T09:56:56.428Z,19
2023-01-19T09:57:56.423Z,20
2023-01-19T09:58:56.432Z,21
2023-01-19T09:59:56.421Z,20
2023-01-19T10:00:56.577Z,21
2023-01-19T10:01:56.556Z,20
2023-01-19T10:02:56.488Z,21
2023-01-19T10:03:56.427Z,20
2023-01-19T10:04:56.425Z,21
2023-01-19T10:05:56.421Z,21
2023-01-19T10:06:56.422Z,20
2023-01-19T10:07:56.434Z,21
2023-01-19T10:08:56.429Z,21
2023-01-19T10:09:56.432Z,21
2023-01-19T10:10:56.466Z,21
2023-01-19T10:11:56.429Z,21
2023-01-19T10:12:56.431Z,22
2023-01-19T10:13:56.426Z,22
2023-01-19T10:14:56.423Z,23
2023-01-19T10:15:56.470Z,21
2023-01-19T10:16:56.422Z,23
2023-01-19T10:17:56.470Z,23
2023-01-19T10:18:56.419Z,23
2023-01-19T10:19:56.536Z,22
2023-01-19T10:20:56.427Z,23
2023-01-19T10:21:56.421Z,23
2023-01-19T10:22:56.424Z,25
2023-01-19T10:23:56.423Z,25
2023-01-19T10:24:56.440Z,23
2023-01-19T10:25:56.481Z,24
2023-01-19T10:26:56.425Z,26
2023-01-19T10:27:56.463Z,25
2023-01-19T10:28:56.426Z,23
2023-01-19T10:29:56.447Z,26
2023-01-19T10:30:56.504Z,25
2023-01-19T10:31:56.554Z,27
2023-01-19T10:32:56.493Z,26
2023-01-19T10:33:56.420Z,27
2023-01-19T10:34:56.447Z,27
2023-01-19T10:35:56.470Z,26
2023-01-19T10:36:56.436Z,28
2023-01-19T10:37:56.415Z,29
2023-01-19T10:38:56.418Z,26
2023-01-19T10:39:56.450Z,24
2023-01-19T10:40:56.446Z,26
2023-01-19T10:41:56.484Z,26
2023-01-19T10:42:56.437Z,24
2023-01-19T10:43:56.424Z,25
2023-01-19T10:44:56.432Z,27
2023-01-19T10:45:56.515Z,25
2023-01-19T10:46:56.431Z,24
2023-01-19T10:47:56.453Z,24
2023-01-19T10:48:56.423Z,24
2023-01-19T10:49:56.429Z,24
2023-01-19T10:50:56.423Z,27
2023-01-19T10:51:56.494Z,27
2023-01-19T10:52:56.494Z,25
2023-01-19T10:53:56.503Z,28
2023-01-19T10:54:56.427Z,27
2023-01-19T10:55:56.707Z,27
2023-01-19T10:56:56.421Z,25
2023-01-19T10:57:56.435Z,25
2023-01-19T10:58:56.453Z,24
2023-01-19T10:59:56.428Z,24
2023-01-19T11:00:56.539Z,26
2023-01-19T11:01:56.634Z,24
2023-01-19T11:02:56.570Z,22
2023-01-19T11:03:56.435Z,23
2023-01-19T11:04:56.521Z,24
2023-01-19T11:05:56.419Z,23
2023-01-19T11:06:56.479Z,24
2023-01-19T11:07:56.418Z,23
2023-01-19T11:08:56.420Z,23
2023-01-19T11:09:56.425Z,23
2023-01-19T11:10:56.433Z,23
2023-01-19T11:11:56.472Z,22
2023-01-19T11:12:56.459Z,25
2023-01-19T11:13:56.432Z,25
2023-01-19T11:14:56.426Z,25
2023-01-19T11:15:56.421Z,24
2023-01-19T11:16:56.442Z,24
2023-01-19T11:17:56.424Z,24
2023-01-19T11:18:56.429Z,25
2023-01-19T11:19:56.423Z,26
2023-01-19T11:20:56.420Z,25
2023-01-19T11:21:56.459Z,24
2023-01-19T11:22:56.424Z,25
2023-01-19T11:23:56.423Z,26
2023-01-19T11:24:56.427Z,25
2023-01-19T11:25:56.441Z,25
2023-01-19T11:26:56.427Z,24
2023-01-19T11:27:56.422Z,25
2023-01-19T11:28:56.417Z,26
2023-01-19T11:29:56.427Z,24
2023-01-19T11:30:56.478Z,24
2023-01-19T11:31:56.448Z,25
2023-01-19T11:32:56.464Z,24
2023-01-19T11:33:56.418Z,22
2023-01-19T11:34:56.435Z,25
2023-01-19T11:35:56.437Z,25
2023-01-19T11:36:56.427Z,23
2023-01-19T11:37:56.426Z,25
2023-01-19T11:38:56.495Z,23
2023-01-19T11:39:56.430Z,23
2023-01-19T11:40:56.423Z,22
2023-01-19T11:41:56.426Z,22
2023-01-19T11:42:56.425Z,24
2023-01-19T11:43:56.456Z,22
2023-01-19T11:44:56.437Z,23
2023-01-19T11:45:56.570Z,23
2023-01-19T11:46:56.430Z,24
2023-01-19T11:47:56.423Z,23
2023-01-19T11:48:56.441Z,23
2023-01-19T11:49:56.429Z,23
2023-01-19T11:50:56.427Z,23
2023-01-19T11:51:56.460Z,25
2023-01-19T11:52:56.422Z,25
2023-01-19T11:53:56.424Z,23
2023-01-19T11:54:56.419Z,26
2023-01-19T11:55:56.437Z,25
2023-01-19T11:56:56.442Z,24
2023-01-19T11:57:56.477Z,24
2023-01-19T11:58:56.422Z,24
2023-01-19T11:59:56.421Z,26
2023-01-19T12:00:56.471Z,27
2023-01-19T12:01:56.466Z,25
2023-01-19T12:02:56.490Z,26
2023-01-19T12:03:56.448Z,25
2023-01-19T12:04:56.423Z,28
2023-01-19T12:05:56.454Z,27
2023-01-19T12:06:56.433Z,27
2023-01-19T12:07:56.438Z,28
2023-01-19T12:08:56.439Z,29
2023-01-19T12:09:56.425Z,30
2023-01-19T12:10:56.419Z,30
2023-01-19T12:11:56.426Z,30
2023-01-19T12:12:56.428Z,30
2023-01-19T12:13:56.432Z,31
2023-01-19T12:14:56.456Z,32
2023-01-19T12:15:56.445Z,29
2023-01-19T12:16:56.418Z,29
2023-01-19T12:17:56.435Z,30
2023-01-19T12:18:56.453Z,30
2023-01-19T12:19:56.520Z,31
2023-01-19T12:20:56.430Z,29
2023-01-19T12:21:56.424Z,30
2023-01-19T12:22:57.936Z,29
2023-01-19T12:23:56.438Z,30
2023-01-19T12:24:56.417Z,31
2023-01-19T12:25:56.425Z,33
2023-01-19T12:26:56.435Z,33
2023-01-19T12:27:56.418Z,32
2023-01-19T12:28:56.429Z,31
2023-01-19T12:29:56.428Z,32
2023-01-19T12:30:56.522Z,33
2023-01-19T12:31:56.683Z,31
2023-01-19T12:32:56.502Z,30
2023-01-19T12:33:56.435Z,29
2023-01-19T12:34:56.425Z,30
2023-01-19T12:35:56.428Z,31
2023-01-19T12:36:56.421Z,29
2023-01-19T12:37:56.429Z,31
2023-01-19T12:38:56.427Z,29
2023-01-19T12:39:56.431Z,29
2023-01-19T12:40:56.429Z,29
2023-01-19T12:41:56.420Z,30
2023-01-19T12:42:56.421Z,32
2023-01-19T12:43:56.420Z,31
2023-01-19T12:44:56.437Z,31
2023-01-19T12:45:56.475Z,30
2023-01-19T12:46:56.428Z,31
2023-01-19T12:47:56.699Z,31
2023-01-19T12:48:56.430Z,31
2023-01-19T12:49:56.437Z,31
2023-01-19T12:50:56.448Z,30
2023-01-19T12:51:56.479Z,29
2023-01-19T12:52:56.435Z,28
2023-01-19T12:53:56.438Z,30
2023-01-19T12:54:56.439Z,28
2023-01-19T12:55:56.425Z,27
2023-01-19T12:56:56.426Z,27
2023-01-19T12:57:56.454Z,26
2023-01-19T12:58:56.424Z,27
2023-01-19T12:59:56.434Z,27
2023-01-19T13:00:56.454Z,27
2023-01-19T13:01:56.492Z,28
2023-01-19T13:02:56.518Z,29
2023-01-19T13:03:56.449Z,27
2023-01-19T13:04:56.430Z,26
2023-01-19T13:05:56.499Z,26
2023-01-19T13:06:56.425Z,26
2023-01-19T13:07:56.426Z,28
2023-01-19T13:08:56.459Z,26
2023-01-19T13:09:56.457Z,28
2023-01-19T13:10:56.422Z,28
2023-01-19T13:12:00.664Z,27
2023-01-19T13:12:56.424Z,25
2023-01-19T13:13:56.471Z,27
2023-01-19T13:14:56.417Z,26
2023-01-19T13:15:56.493Z,25
2023-01-19T13:16:56.453Z,27
2023-01-19T13:17:56.442Z,26
2023-01-19T13:18:56.431Z,26
2023-01-19T13:19:56.427Z,25
2023-01-19T13:20:56.418Z,26
2023-01-19T13:21:56.418Z,26
2023-01-19T13:22:56.424Z,24
2023-01-19T13:23:56.431Z,24
2023-01-19T13:24:57.029Z,24
2023-01-19T13:25:56.420Z,23
2023-01-19T13:26:56.427Z,25
2023-01-19T13:27:56.425Z,24
2023-01-19T13:28:56.418Z,25
2023-01-19T13:29:56.433Z,25
2023-01-19T13:30:56.673Z,24
2023-01-19T13:31:56.423Z,22
2023-01-19T13:32:56.424Z,22
2023-01-19T13:34:56.418Z,24
2023-01-19T13:35:56.450Z,22
2023-01-19T13:36:56.455Z,22
2023-01-19T13:37:56.422Z,23
2023-01-19T13:38:56.422Z,22
2023-01-19T13:39:56.426Z,23
2023-01-19T13:40:56.464Z,22
2023-01-19T13:41:56.864Z,21
2023-01-19T13:42:56.475Z,21
2023-01-19T13:43:56.424Z,21
2023-01-19T13:44:56.417Z,20
2023-01-19T13:45:56.442Z,21
2023-01-19T13:46:56.435Z,21
2023-01-19T13:47:56.581Z,21
2023-01-19T13:48:56.426Z,21
2023-01-19T13:49:56.431Z,22
2023-01-19T13:50:56.426Z,21
2023-01-19T13:51:56.423Z,20
2023-01-19T13:52:56.428Z,21
2023-01-19T13:53:56.476Z,20
2023-01-19T13:54:56.465Z,22
2023-01-19T13:55:56.426Z,21
2023-01-19T13:56:56.419Z,22
2023-01-19T13:57:56.445Z,22
2023-01-19T13:58:56.425Z,18
2023-01-19T13:59:56.429Z,20
2023-01-19T14:00:56.527Z,20
2023-01-19T14:01:56.551Z,19
2023-01-19T14:02:56.596Z,20
2023-01-19T14:03:56.430Z,20
2023-01-19T14:04:56.445Z,20
2023-01-19T14:05:56.488Z,21
2023-01-19T14:06:56.472Z,20
2023-01-19T14:07:56.492Z,19
2023-01-19T14:08:56.424Z,19
2023-01-19T14:09:56.489Z,19
2023-01-19T14:10:56.513Z,20
2023-01-19T14:11:56.467Z,20
2023-01-19T14:12:59.596Z,19
2023-01-19T14:13:56.485Z,19
2023-01-19T14:14:56.452Z,18
2023-01-19T14:15:56.544Z,19
2023-01-19T14:16:56.424Z,20
2023-01-19T14:17:56.423Z,20
2023-01-19T14:18:56.468Z,18
2023-01-19T14:19:56.533Z,20
2023-01-19T14:20:56.434Z,19
2023-01-19T14:21:56.435Z,18
2023-01-19T14:22:56.430Z,18
2023-01-19T14:23:56.427Z,18
2023-01-19T14:24:56.432Z,17